Time;durP1;ratioP1;P1;durP2;ratioP2;P2;SDS_P1;SDS_P2;PMS_P1;PMS_P2;Temp;Humidity;BMP_temperature;BMP_pressure;BME280_temperature;BME280_humidity;BME280_pressure;Samples;Min_cycle;Max_cycle;Signal;HPM_P1;HPM_P2
2022/08/29 00:01:23;;;;;;;13.00;4.20;;;16.20;97.90;;;;;;4821308;29;20503;-74
2022/08/29 00:03:48;;;;;;;15.23;4.28;;;17.10;93.40;;;;;;4806430;29;20055;-74
2022/08/29 00:06:14;;;;;;;14.27;4.13;;;;;;;;;;4806869;29;20058;-74
2022/08/29 00:08:41;;;;;;;11.00;4.03;;;;;;;;;;4820165;29;20130;-74
2022/08/29 00:11:07;;;;;;;12.40;4.35;;;;;;;;;;4806560;29;20054;-74
2022/08/29 00:13:33;;;;;;;20.42;5.13;;;;;;;;;;4819905;29;20051;-74
2022/08/29 00:15:59;;;;;;;11.82;5.00;;;;;;;;;;4807903;29;20092;-74
2022/08/29 00:18:25;;;;;;;14.40;4.28;;;;;;;;;;4806055;29;20054;-74
2022/08/29 00:20:52;;;;;;;12.40;4.10;;;16.90;93.70;;;;;;4806476;29;20125;-74
2022/08/29 00:23:18;;;;;;;12.30;4.45;;;;;;;;;;4806001;29;20128;-74
2022/08/29 00:25:44;;;;;;;16.85;4.80;;;;;;;;;;4818664;29;20069;-74
2022/08/29 00:28:10;;;;;;;17.15;4.75;;;;;;;;;;4790521;29;20057;-74
2022/08/29 00:30:36;;;;;;;12.15;4.05;;;;;;;;;;4814758;29;20100;-74
2022/08/29 00:33:03;;;;;;;21.05;4.15;;;;;;;;;;4805852;29;20043;-74
2022/08/29 00:35:32;;;;;;;16.33;4.40;;;17.30;94.30;;;;;;4821282;29;20054;-74
2022/08/29 00:37:58;;;;;;;11.65;4.03;;;17.00;93.60;;;;;;4790554;29;20035;-74
2022/08/29 00:40:30;;;;;;;14.13;4.57;;;17.10;94.30;;;;;;4820925;29;20081;-74
2022/08/29 00:42:57;;;;;;;13.40;4.20;;;;;;;;;;4805596;29;20102;-74
2022/08/29 00:45:23;;;;;;;17.67;5.05;;;;;;;;;;4805404;29;20046;-74
2022/08/29 00:48:03;;;;;;;13.38;4.75;;;17.10;94.60;;;;;;4804813;29;20150;-74
2022/08/29 00:50:40;;;;;;;11.40;4.35;;;17.00;94.90;;;;;;4805699;29;20057;-74
2022/08/29 00:53:10;;;;;;;16.08;4.38;;;17.10;94.70;;;;;;4805202;29;20405;-74
2022/08/29 00:55:36;;;;;;;17.63;4.57;;;;;;;;;;4790529;29;20051;-74
2022/08/29 00:58:13;;;;;;;14.05;4.65;;;17.80;96.60;;;;;;4817984;29;20484;-74
2022/08/29 01:00:39;;;;;;;18.65;4.50;;;;;;;;;;4805410;29;20073;-74
2022/08/29 01:03:06;;;;;;;16.08;4.47;;;16.80;95.10;;;;;;4805037;29;20104;-70
2022/08/29 01:05:32;;;;;;;18.33;4.82;;;;;;;;;;4827086;29;20162;-71
2022/08/29 01:07:59;;;;;;;20.70;4.63;;;;;;;;;;4805013;29;20125;-70
2022/08/29 01:13:10;;;;;;;16.50;4.20;;;17.90;99.90;;;;;;4818286;29;20042;-70
2022/08/29 01:15:39;;;;;;;18.20;4.93;;;17.10;95.70;;;;;;4805338;29;20047;-70
2022/08/29 01:18:07;;;;;;;19.77;5.47;;;15.70;99.70;;;;;;4834666;29;20039;-70
2022/08/29 01:20:54;;;;;;;17.95;4.60;;;18.00;99.90;;;;;;4805076;29;20058;-70
2022/08/29 01:23:29;;;;;;;16.75;4.63;;;17.00;96.00;;;;;;4805035;29;20046;-70
2022/08/29 01:25:57;;;;;;;17.55;4.30;;;17.00;95.90;;;;;;4805000;29;20055;-70
2022/08/29 01:28:31;;;;;;;13.05;4.38;;;17.00;96.20;;;;;;4804834;29;20069;-71
2022/08/29 01:31:12;;;;;;;18.77;4.45;;;16.90;96.40;;;;;;4805169;29;20073;-73
2022/08/29 01:33:46;;;;;;;15.50;4.45;;;15.80;99.90;;;;;;4804731;29;20049;-73
2022/08/29 01:36:20;;;;;;;19.80;4.68;;;17.90;99.90;;;;;;4835458;29;20125;-74
2022/08/29 01:38:46;;;;;;;16.15;4.15;;;;;;;;;;4804787;29;20065;-74
2022/08/29 01:41:13;;;;;;;18.20;4.70;;;;;;;;;;4815260;29;20043;-74
2022/08/29 01:43:50;;;;;;;15.35;4.55;;;17.30;99.90;;;;;;4804356;29;20047;-74
2022/08/29 01:46:18;;;;;;;11.65;4.10;;;;;;;;;;4789702;29;20047;-74
2022/08/29 01:48:45;;;;;;;28.02;4.78;;;17.00;96.50;;;;;;4817628;29;20042;-74
2022/08/29 01:51:12;;;;;;;16.88;4.30;;;16.50;99.90;;;;;;4789882;29;20058;-74
2022/08/29 01:53:38;;;;;;;16.65;4.32;;;;;;;;;;4804403;29;20143;-74
2022/08/29 01:56:18;;;;;;;13.98;3.88;;;16.70;97.90;;;;;;4804552;29;20043;-74
2022/08/29 01:58:46;;;;;;;22.83;5.00;;;17.10;96.70;;;;;;4795791;29;20096;-74
2022/08/29 02:01:14;;;;;;;13.00;3.95;;;17.00;97.10;;;;;;4811067;29;20047;-74
2022/08/29 02:03:40;;;;;;;14.82;4.60;;;;;;;;;;4841760;29;20118;-74
2022/08/29 02:06:09;;;;;;;22.65;5.05;;;;;;;;;;4810525;29;20047;-74
2022/08/29 02:08:41;;;;;;;16.27;4.60;;;17.00;97.20;;;;;;4811022;29;20047;-74
2022/08/29 02:11:09;;;;;;;16.67;4.10;;;;;;;;;;4812156;29;20059;-74
2022/08/29 02:13:40;;;;;;;14.45;4.75;;;17.00;97.50;;;;;;4810452;29;20433;-74
2022/08/29 02:16:07;;;;;;;16.73;4.93;;;;;;;;;;4810767;29;20487;-74
2022/08/29 02:18:34;;;;;;;11.13;4.25;;;;;;;;;;4810704;29;20145;-74
2022/08/29 02:21:00;;;;;;;14.07;4.35;;;16.80;97.40;;;;;;4810582;29;20047;-74
2022/08/29 02:23:26;;;;;;;16.50;4.05;;;;;;;;;;4810596;29;20051;-73
2022/08/29 02:25:53;;;;;;;15.02;4.32;;;;;;;;;;4810305;29;20058;-74
2022/08/29 02:28:19;;;;;;;17.60;4.38;;;;;;;;;;4809986;29;20080;-74
2022/08/29 02:30:51;;;;;;;17.42;4.20;;;18.00;99.90;;;;;;4809901;29;20054;-74
2022/08/29 02:33:18;;;;;;;18.40;4.25;;;;;;;;;;4810228;29;20055;-74
2022/08/29 02:35:44;;;;;;;24.80;4.50;;;;;;;;;;4810528;29;20138;-74
2022/08/29 02:38:10;;;;;;;17.60;4.43;;;;;;;;;;4810273;29;20118;-74
2022/08/29 02:40:36;;;;;;;17.17;4.93;;;;;;;;;;4810807;29;20050;-74
2022/08/29 02:43:03;;;;;;;19.75;4.40;;;17.20;97.40;;;;;;4810452;29;20479;-74
2022/08/29 02:45:29;;;;;;;16.80;4.63;;;;;;;;;;4810445;29;20507;-74
2022/08/29 02:47:56;;;;;;;15.35;4.43;;;;;;;;;;4810189;29;20039;-74
2022/08/29 02:50:24;;;;;;;26.15;5.40;;;;;;;;;;4810378;29;20557;-74
2022/08/29 02:52:50;;;;;;;19.20;4.85;;;;;;;;;;4810194;29;20047;-74
2022/08/29 02:55:18;;;;;;;13.93;4.20;;;17.00;98.00;;;;;;4810268;29;20050;-74
2022/08/29 02:57:45;;;;;;;22.17;4.45;;;17.00;97.90;;;;;;4810463;29;20047;-74
2022/08/29 03:00:16;;;;;;;22.90;5.05;;;17.10;98.00;;;;;;4810217;29;20066;-74
2022/08/29 03:02:43;;;;;;;20.70;4.65;;;;;;;;;;4810177;29;20117;-74
2022/08/29 03:05:09;;;;;;;19.73;5.57;;;16.40;99.90;;;;;;4819244;29;20054;-74
2022/08/29 03:07:35;;;;;;;23.42;4.97;;;;;;;;;;4827870;29;20051;-74
2022/08/29 03:10:03;;;;;;;12.13;4.35;;;16.90;97.40;;;;;;4806886;29;20496;-74
2022/08/29 03:12:29;;;;;;;22.88;5.05;;;;;;;;;;4807465;29;20050;-74
2022/08/29 03:14:55;;;;;;;17.25;4.50;;;;;;;;;;4820926;29;20068;-75
2022/08/29 03:17:21;;;;;;;18.75;4.07;;;;;;;;;;4818236;29;20054;-74
2022/08/29 03:19:47;;;;;;;15.43;4.07;;;;;;;;;;4807255;29;20058;-74
2022/08/29 03:22:14;;;;;;;14.57;5.15;;;;;;;;;;4822025;29;20046;-74
2022/08/29 03:24:40;;;;;;;16.13;4.70;;;15.80;99.90;;;;;;4807197;29;20050;-75
2022/08/29 03:27:06;;;;;;;16.70;4.10;;;17.60;99.90;;;;;;4791624;29;20047;-74
2022/08/29 03:29:32;;;;;;;11.07;4.00;;;;;;;;;;4807250;29;20141;-74
2022/08/29 03:31:59;;;;;;;16.95;4.55;;;;;;;;;;4806813;29;20065;-74
2022/08/29 03:34:26;;;;;;;13.30;3.88;;;16.90;98.10;;;;;;4805988;29;20069;-74
2022/08/29 03:36:53;;;;;;;13.13;4.05;;;16.80;97.70;;;;;;4836838;29;20050;-74
2022/08/29 03:39:19;;;;;;;11.55;3.72;;;;;;;;;;4822429;29;20059;-74
2022/08/29 03:41:45;;;;;;;16.02;3.67;;;16.60;99.90;;;;;;4820345;29;20035;-74
2022/08/29 03:44:11;;;;;;;13.57;3.90;;;17.20;99.90;;;;;;4806798;29;20506;-70
2022/08/29 03:46:38;;;;;;;11.68;3.83;;;;;;;;;;4807552;29;20111;-69
2022/08/29 03:49:06;;;;;;;12.05;3.55;;;16.70;98.40;;;;;;4808619;29;20094;-70
2022/08/29 03:51:33;;;;;;;13.10;3.45;;;16.80;98.80;;;;;;4838899;29;20038;-70
2022/08/29 03:53:59;;;;;;;16.20;5.35;;;;;;;;;;4824874;29;20116;-70
2022/08/29 03:56:26;;;;;;;18.60;3.58;;;;;;;;;;4791597;29;20603;-70
2022/08/29 03:58:52;;;;;;;9.90;3.40;;;;;;;;;;4806191;29;20409;-70
2022/08/29 04:01:18;;;;;;;16.13;3.58;;;;;;;;;;4806550;29;20058;-70
2022/08/29 04:03:44;;;;;;;12.98;3.58;;;;;;;;;;4812308;29;20412;-71
2022/08/29 04:06:11;;;;;;;11.18;3.10;;;;;;;;;;4806293;29;20055;-70
2022/08/29 04:08:37;;;;;;;9.55;3.40;;;;;;;;;;4799642;29;20054;-70
2022/08/29 04:11:10;;;;;;;15.05;3.65;;;17.50;98.50;;;;;;4821534;29;20053;-71
2022/08/29 04:13:36;;;;;;;15.90;4.28;;;;;;;;;;4820097;29;20051;-70
2022/08/29 04:16:09;;;;;;;11.13;3.58;;;16.60;99.40;;;;;;4821728;29;20046;-70
2022/08/29 04:18:35;;;;;;;14.50;3.20;;;;;;;;;;4814897;29;20094;-70
2022/08/29 04:21:01;;;;;;;15.40;3.30;;;16.70;99.30;;;;;;4806373;29;20057;-71
2022/08/29 04:23:27;;;;;;;11.75;2.90;;;;;;;;;;4805747;29;20058;-71
2022/08/29 04:25:53;;;;;;;14.13;3.53;;;;;;;;;;4806111;29;20074;-71
2022/08/29 04:28:19;;;;;;;11.10;3.00;;;;;;;;;;4807270;29;20054;-71
2022/08/29 04:30:50;;;;;;;12.90;2.97;;;16.30;99.60;;;;;;4813915;29;20130;-70
2022/08/29 04:33:17;;;;;;;15.05;3.03;;;16.70;99.50;;;;;;4790713;29;20047;-70
2022/08/29 04:35:43;;;;;;;9.70;3.63;;;;;;;;;;4821357;29;20053;-71
2022/08/29 04:38:09;;;;;;;14.13;3.47;;;17.70;99.90;;;;;;4805560;29;20107;-71
2022/08/29 04:40:37;;;;;;;12.40;3.20;;;16.60;99.50;;;;;;4805822;29;20050;-71
2022/08/29 04:43:02;;;;;;;9.43;3.10;;;17.50;99.90;;;;;;4805755;29;20058;-71
2022/08/29 04:45:29;;;;;;;11.50;3.03;;;;;;;;;;4805906;29;20046;-71
2022/08/29 04:47:55;;;;;;;11.43;3.20;;;;;;;;;;4820728;29;20042;-70
2022/08/29 04:50:22;;;;;;;13.65;3.90;;;15.50;99.90;;;;;;4805354;29;20039;-70
2022/08/29 04:52:50;;;;;;;16.50;3.83;;;16.70;99.30;;;;;;4835758;29;20047;-71
2022/08/29 04:55:17;;;;;;;15.60;3.85;;;16.80;99.90;;;;;;4805500;29;20503;-70
2022/08/29 04:57:43;;;;;;;10.70;3.45;;;;;;;;;;4805525;29;20117;-70
2022/08/29 05:00:14;;;;;;;12.48;3.78;;;16.80;99.90;;;;;;4805416;29;20490;-70
2022/08/29 05:02:41;;;;;;;12.80;3.42;;;17.20;99.90;;;;;;4820919;29;20053;-70
2022/08/29 05:05:08;;;;;;;14.40;3.85;;;17.50;99.90;;;;;;4805460;29;20242;-70
2022/08/29 05:07:35;;;;;;;15.48;4.18;;;;;;;;;;4790340;29;20049;-70
2022/08/29 05:10:08;;;;;;;14.05;3.80;;;16.60;99.90;;;;;;4808576;29;20050;-70
2022/08/29 05:12:34;;;;;;;16.23;3.90;;;;;;;;;;4790499;29;20125;-70
2022/08/29 05:15:00;;;;;;;13.27;3.70;;;15.50;99.90;;;;;;4806256;29;20051;-70
2022/08/29 05:17:27;;;;;;;9.73;3.30;;;;;;;;;;4805361;29;20039;-70
2022/08/29 05:19:53;;;;;;;18.45;3.67;;;;;;;;;;4805083;29;20047;-71
2022/08/29 05:22:20;;;;;;;13.38;3.33;;;16.20;99.90;;;;;;4805039;29;20051;-70
2022/08/29 05:24:47;;;;;;;15.27;3.80;;;16.60;99.90;;;;;;4805098;29;20078;-70
2022/08/29 05:27:17;;;;;;;13.43;4.03;;;16.80;99.90;;;;;;4835483;29;20050;-71
2022/08/29 05:29:44;;;;;;;13.13;4.00;;;16.70;99.90;;;;;;4832904;29;20043;-70
2022/08/29 05:32:13;;;;;;;13.23;3.97;;;16.60;99.90;;;;;;4805139;29;20064;-70
2022/08/29 05:34:40;;;;;;;13.27;4.35;;;15.80;99.90;;;;;;4829020;29;20079;-70
2022/08/29 05:37:09;;;;;;;16.92;4.57;;;16.40;99.90;;;;;;4790264;29;20126;-70
2022/08/29 05:39:37;;;;;;;16.35;4.40;;;16.70;99.90;;;;;;4789749;29;20505;-70
2022/08/29 05:42:03;;;;;;;17.85;3.67;;;17.00;99.90;;;;;;4805264;29;20507;-71
2022/08/29 05:44:31;;;;;;;15.68;3.58;;;16.50;99.90;;;;;;4789757;29;20050;-70
2022/08/29 05:46:58;;;;;;;16.73;3.92;;;;;;;;;;4804831;29;20046;-70
2022/08/29 05:49:24;;;;;;;15.35;3.70;;;;;;;;;;4804724;29;20111;-70
2022/08/29 05:51:56;;;;;;;16.88;4.00;;;15.70;99.90;;;;;;4820470;29;20046;-70
2022/08/29 05:54:22;;;;;;;;;;;17.00;99.90;;;;;;4800564;29;20039;-70
2022/08/29 05:56:49;;;;;;;23.92;4.40;;;;;;;;;;4804684;29;19971;-70
2022/08/29 05:59:18;;;;;;;20.23;4.70;;;16.70;99.90;;;;;;4802833;29;20133;-70
2022/08/29 06:01:47;;;;;;;19.90;4.00;;;;;;;;;;4797753;29;20047;-73
2022/08/29 06:04:13;;;;;;;20.23;4.32;;;;;;;;;;4803727;29;20455;-74
2022/08/29 06:06:40;;;;;;;17.05;4.30;;;16.80;99.90;;;;;;4818211;29;20051;-74
2022/08/29 06:09:07;;;;;;;19.00;4.13;;;;;;;;;;4830528;29;20569;-73
2022/08/29 06:11:34;;;;;;;20.33;4.60;;;16.80;99.90;;;;;;4803752;29;20042;-73
2022/08/29 06:14:00;;;;;;;19.38;4.68;;;17.00;99.90;;;;;;4806400;29;20078;-73
2022/08/29 06:16:28;;;;;;;19.67;4.32;;;17.00;99.90;;;;;;4795823;29;20038;-73
2022/08/29 06:18:54;;;;;;;23.67;5.60;;;;;;;;;;4808093;29;20050;-73
2022/08/29 06:21:20;;;;;;;26.75;5.82;;;;;;;;;;4808596;29;20488;-73
2022/08/29 06:23:47;;;;;;;20.27;4.55;;;17.20;99.90;;;;;;4793806;29;20042;-73
2022/08/29 06:26:13;;;;;;;21.70;4.00;;;17.20;99.90;;;;;;4806418;29;20047;-74
2022/08/29 06:28:44;;;;;;;16.67;4.50;;;17.10;99.90;;;;;;4830152;29;20054;-74
2022/08/29 06:31:19;;;;;;;24.52;4.57;;;17.00;99.90;;;;;;4804552;29;20055;-73
2022/08/29 06:33:45;;;;;;;20.02;4.20;;;;;;;;;;4804136;29;20483;-73
2022/08/29 06:36:12;;;;;;;13.30;3.88;;;16.80;99.90;;;;;;4809316;29;20098;-73
2022/08/29 06:38:38;;;;;;;17.17;4.65;;;;;;;;;;4804632;29;20107;-73
2022/08/29 06:41:07;;;;;;;16.58;5.43;;;16.80;99.90;;;;;;4804485;29;20480;-73
2022/08/29 06:43:33;;;;;;;19.58;5.20;;;;;;;;;;4804418;29;20096;-73
2022/08/29 06:45:59;;;;;;;21.55;4.50;;;;;;;;;;4807799;29;20115;-74
2022/08/29 06:48:25;;;;;;;17.52;3.90;;;16.90;99.90;;;;;;4793084;29;20155;-74
2022/08/29 06:50:54;;;;;;;15.60;4.30;;;;;;;;;;4808152;29;20506;-73
2022/08/29 06:53:20;;;;;;;17.33;4.05;;;17.30;99.90;;;;;;4807707;29;20058;-73
2022/08/29 06:55:47;;;;;;;19.15;3.50;;;;;;;;;;4792787;29;20042;-73
2022/08/29 06:58:13;;;;;;;17.23;4.32;;;;;;;;;;4778186;29;20043;-74
2022/08/29 07:00:40;;;;;;;24.33;3.88;;;17.50;99.90;;;;;;4791240;29;20050;-74
2022/08/29 07:03:06;;;;;;;20.08;4.75;;;;;;;;;;4807300;29;20493;-71
2022/08/29 07:05:32;;;;;;;18.13;3.83;;;;;;;;;;4806515;29;20059;-71
2022/08/29 07:07:58;;;;;;;19.88;4.15;;;;;;;;;;4807653;29;20049;-74
2022/08/29 07:10:24;;;;;;;18.83;3.40;;;18.40;99.90;;;;;;4812525;29;20121;-74
2022/08/29 07:12:52;;;;;;;15.35;3.47;;;17.80;99.90;;;;;;4799534;29;20038;-74
2022/08/29 07:15:19;;;;;;;21.58;3.60;;;;;;;;;;4801555;29;20046;-74
2022/08/29 07:17:46;;;;;;;12.85;3.38;;;;;;;;;;4815178;29;20483;-74
2022/08/29 07:20:12;;;;;;;16.80;3.90;;;;;;;;;;4816092;29;20050;-73
2022/08/29 07:22:38;;;;;;;16.38;4.75;;;;;;;;;;4814809;29;20072;-73
2022/08/29 07:25:05;;;;;;;20.13;4.25;;;;;;;;;;4807304;29;20404;-73
2022/08/29 07:27:31;;;;;;;20.10;3.92;;;;;;;;;;4817256;29;20046;-74
2022/08/29 07:29:59;;;;;;;14.05;3.92;;;;;;;;;;4814575;29;20054;-74
2022/08/29 07:32:25;;;;;;;18.25;3.50;;;19.10;99.90;;;;;;4817438;29;20117;-74
2022/08/29 07:34:51;;;;;;;16.08;3.80;;;;;;;;;;4822511;29;20133;-73
2022/08/29 07:37:17;;;;;;;16.95;3.53;;;;;;;;;;4814697;29;20039;-74
2022/08/29 07:39:43;;;;;;;15.15;3.50;;;;;;;;;;4812336;29;20455;-74
2022/08/29 07:42:09;;;;;;;18.23;3.78;;;;;;;;;;4817399;29;20038;-74
2022/08/29 07:44:35;;;;;;;12.75;3.17;;;;;;;;;;4817948;29;20448;-74
2022/08/29 07:47:01;;;;;;;13.88;3.83;;;;;;;;;;4815829;29;20433;-73
2022/08/29 07:49:29;;;;;;;17.92;3.63;;;18.30;99.90;;;;;;4814246;29;20086;-70
2022/08/29 07:51:55;;;;;;;24.70;4.00;;;;;;;;;;4830341;29;20051;-70
2022/08/29 07:54:22;;;;;;;18.65;3.88;;;;;;;;;;4816323;29;20053;-74
2022/08/29 07:56:50;;;;;;;13.13;3.65;;;18.30;99.90;;;;;;4799488;29;20506;-74
2022/08/29 07:59:18;;;;;;;12.75;3.30;;;18.50;99.90;;;;;;4815678;29;20142;-74
2022/08/29 08:01:44;;;;;;;19.05;4.55;;;19.30;99.90;;;;;;4815624;29;20089;-71
2022/08/29 08:04:10;;;;;;;17.92;3.67;;;19.40;99.90;;;;;;4817035;29;20633;-71
2022/08/29 08:06:37;;;;;;;15.57;3.45;;;18.40;99.20;;;;;;4816678;29;20042;-74
2022/08/29 08:09:33;;;;;;;18.48;3.67;;;18.80;99.80;;;;;;4815319;29;20488;-70
2022/08/29 08:12:00;;;;;;;12.07;3.38;;;;;;;;;;4794154;29;20427;-74
2022/08/29 08:14:26;;;;;;;16.70;3.17;;;19.40;99.90;;;;;;4799557;29;20051;-71
2022/08/29 08:16:52;;;;;;;18.10;3.58;;;;;;;;;;4799499;29;20051;-71
2022/08/29 08:19:19;;;;;;;16.75;4.00;;;;;;;;;;4818740;29;20051;-71
2022/08/29 08:21:45;;;;;;;10.25;3.50;;;;;;;;;;4820417;29;20495;-71
2022/08/29 08:24:11;;;;;;;23.40;3.60;;;;;;;;;;4817877;29;20057;-70
2022/08/29 08:26:37;;;;;;;15.70;4.28;;;;;;;;;;4807272;29;20099;-70
2022/08/29 08:29:03;;;;;;;18.40;3.30;;;;;;;;;;4821389;29;20045;-70
2022/08/29 08:31:30;;;;;;;15.07;3.20;;;;;;;;;;4820677;29;20105;-70
2022/08/29 08:33:56;;;;;;;13.30;3.10;;;;;;;;;;4808376;29;20050;-71
2022/08/29 08:36:27;;;;;;;12.77;3.78;;;19.30;97.60;;;;;;4805874;29;20042;-70
2022/08/29 08:38:54;;;;;;;22.30;3.72;;;19.40;97.60;;;;;;4808327;29;20131;-70
2022/08/29 08:41:20;;;;;;;20.02;4.75;;;;;;;;;;4803867;29;20106;-70
2022/08/29 08:43:52;;;;;;;20.25;3.75;;;20.20;99.90;;;;;;4820389;29;20438;-70
2022/08/29 08:46:43;;;;;;;21.58;3.95;;;19.20;97.80;;;;;;4816260;29;20111;-71
2022/08/29 08:49:48;;;;;;;21.95;4.25;;;19.40;97.70;;;;;;4813265;29;20057;-71
2022/08/29 08:52:35;;;;;;;17.70;4.47;;;;;;;;;;4815279;29;20050;-71
2022/08/29 08:55:21;;;;;;;20.83;4.55;;;19.20;97.50;;;;;;4805369;29;20133;-71
2022/08/29 08:58:16;;;;;;;28.77;4.57;;;19.10;98.10;;;;;;4812438;29;20050;-70
2022/08/29 09:00:46;;;;;;;23.20;4.28;;;19.30;97.70;;;;;;4777755;29;20069;-70
2022/08/29 09:03:37;;;;;;;14.40;4.13;;;20.40;97.20;;;;;;4813159;29;20046;-70
2022/08/29 09:06:13;;;;;;;23.40;4.60;;;19.80;96.40;;;;;;4828526;29;20100;-74
2022/08/29 09:09:32;;;;;;;21.38;3.78;;;20.00;96.20;;;;;;4811662;29;20829;-73
2022/08/29 09:12:14;;;;;;;15.07;3.85;;;20.10;95.90;;;;;;4795221;29;20061;-73
2022/08/29 09:15:08;;;;;;;20.55;3.78;;;20.30;99.90;;;;;;4812251;29;20054;-73
2022/08/29 09:17:49;;;;;;;23.55;4.28;;;20.00;99.90;;;;;;4812922;29;20096;-73
2022/08/29 09:20:23;;;;;;;23.02;4.05;;;20.70;99.90;;;;;;4821302;29;20047;-73
2022/08/29 09:23:01;;;;;;;19.63;4.40;;;19.10;99.90;;;;;;4812545;29;20470;-74
2022/08/29 09:25:29;;;;;;;26.05;4.80;;;20.20;97.00;;;;;;4812358;29;20103;-73
2022/08/29 09:27:57;;;;;;;19.48;4.32;;;19.00;99.90;;;;;;4805219;29;20121;-74
2022/08/29 09:30:30;;;;;;;24.90;5.35;;;19.80;97.30;;;;;;4805160;29;20051;-73
2022/08/29 09:33:01;;;;;;;20.77;4.32;;;19.90;97.60;;;;;;4789894;29;20043;-73
2022/08/29 09:35:40;;;;;;;17.67;4.40;;;19.50;97.60;;;;;;4808548;29;20126;-72
2022/08/29 09:38:17;;;;;;;15.63;3.88;;;19.50;97.60;;;;;;4827652;29;20073;-73
2022/08/29 09:40:47;;;;;;;23.00;5.15;;;18.40;99.40;;;;;;4809114;29;20517;-74
2022/08/29 09:43:19;;;;;;;23.75;4.45;;;19.60;96.90;;;;;;4802224;29;20042;-73
2022/08/29 09:46:10;;;;;;;18.73;4.10;;;18.90;99.90;;;;;;4812451;29;20039;-73
2022/08/29 09:48:42;;;;;;;18.00;4.60;;;19.20;98.10;;;;;;4799870;29;20086;-72
2022/08/29 09:51:11;;;;;;;20.50;4.85;;;19.70;99.90;;;;;;4813928;29;20043;-73
2022/08/29 09:53:37;;;;;;;16.20;5.20;;;;;;;;;;4797020;29;20160;-73
2022/08/29 09:56:10;;;;;;;12.23;4.13;;;18.80;99.90;;;;;;4797711;29;20046;-74
2022/08/29 09:58:39;;;;;;;17.02;4.60;;;19.10;98.50;;;;;;4812281;29;20111;-73
2022/08/29 10:01:05;;;;;;;30.40;5.18;;;;;;;;;;4815588;29;20058;-74
2022/08/29 10:03:44;;;;;;;18.77;4.70;;;18.90;97.70;;;;;;4809404;29;20086;-75
2022/08/29 10:06:23;;;;;;;19.85;4.78;;;18.60;99.90;;;;;;4819998;29;20051;-72
2022/08/29 10:09:00;;;;;;;32.90;5.55;;;20.00;99.90;;;;;;4822879;29;20054;-72
2022/08/29 10:11:48;;;;;;;19.10;4.75;;;19.70;97.60;;;;;;4804290;29;20057;-72
2022/08/29 10:14:52;;;;;;;20.52;4.72;;;20.10;99.90;;;;;;4804233;29;20035;-73
2022/08/29 10:20:38;;;;;;;15.57;4.55;;;20.40;99.90;;;;;;4837334;29;20125;-73
2022/08/29 10:23:10;;;;;;;24.17;6.10;;;18.80;99.90;;;;;;4832772;29;20043;-73
2022/08/29 10:25:40;;;;;;;22.02;4.90;;;20.70;99.90;;;;;;4809413;29;20117;-74
2022/08/29 10:28:20;;;;;;;28.63;5.90;;;18.80;99.90;;;;;;4807617;29;20050;-74
2022/08/29 10:30:59;;;;;;;24.00;5.30;;;19.20;99.90;;;;;;4793043;29;20047;-74
2022/08/29 10:33:48;;;;;;;25.42;5.57;;;19.20;99.90;;;;;;4816897;29;20055;-72
2022/08/29 10:36:14;;;;;;;19.80;5.55;;;;;;;;;;4807927;29;20543;-71
2022/08/29 10:38:56;;;;;;;35.60;6.53;;;20.50;99.90;;;;;;4808172;29;20051;-72
2022/08/29 10:41:39;;;;;;;31.63;6.53;;;20.10;97.50;;;;;;4827654;29;20043;-71
2022/08/29 10:44:27;;;;;;;28.58;5.93;;;19.10;99.90;;;;;;4828782;29;20512;-72
2022/08/29 10:47:22;;;;;;;29.77;6.28;;;20.80;99.90;;;;;;4814707;29;20048;-72
2022/08/29 10:49:48;;;;;;;31.13;5.90;;;;;;;;;;4814896;29;20183;-72
2022/08/29 10:52:49;;;;;;;28.77;6.13;;;20.10;97.70;;;;;;4797819;29;20133;-72
2022/08/29 10:55:22;;;;;;;25.77;5.10;;;20.10;98.70;;;;;;4754276;30;20048;-72
2022/08/29 10:57:59;;;;;;;27.60;5.90;;;20.60;99.90;;;;;;4824734;29;20389;-72
2022/08/29 11:00:38;;;;;;;27.90;5.70;;;20.80;98.60;;;;;;4791448;29;20168;-72
2022/08/29 11:03:41;;;;;;;26.70;5.47;;;20.30;99.90;;;;;;4805021;29;20477;-72
2022/08/29 11:06:31;;;;;;;22.02;5.72;;;20.10;98.90;;;;;;4823110;29;20122;-72
2022/08/29 11:09:37;;;;;;;33.22;6.47;;;19.80;99.90;;;;;;4807259;29;20412;-72
2022/08/29 11:12:09;;;;;;;30.60;6.68;;;20.90;99.90;;;;;;4791717;29;20035;-73
2022/08/29 11:15:06;;;;;;;27.52;5.93;;;19.70;99.90;;;;;;4819404;29;20046;-72
2022/08/29 11:17:40;;;;;;;29.77;5.78;;;20.60;99.90;;;;;;4805877;29;20096;-72
2022/08/29 11:20:12;;;;;;;32.35;5.95;;;20.40;97.40;;;;;;4828821;29;20043;-73
2022/08/29 11:23:04;;;;;;;22.10;6.45;;;20.60;99.90;;;;;;4791123;29;20497;-72
2022/08/29 11:25:31;;;;;;;27.80;5.60;;;20.80;99.90;;;;;;4822623;29;20047;-78
2022/08/29 11:28:09;;;;;;;25.88;5.65;;;20.90;99.90;;;;;;4821205;29;20137;-72
2022/08/29 11:31:00;;;;;;;21.63;5.65;;;21.00;99.90;;;;;;4806145;29;20046;-71
2022/08/29 11:33:46;;;;;;;28.95;6.13;;;20.40;96.40;;;;;;4815694;29;20573;-75
2022/08/29 11:36:24;;;;;;;22.27;5.43;;;20.50;99.90;;;;;;4807066;29;20043;-71
2022/08/29 11:39:15;;;;;;;27.38;6.30;;;21.20;98.40;;;;;;4824308;29;20491;-69
2022/08/29 11:41:45;;;;;;;33.00;6.57;;;20.30;97.20;;;;;;4788010;30;20051;-68
2022/08/29 11:44:22;;;;;;;25.70;5.15;;;20.30;97.20;;;;;;4773655;29;20138;-69
2022/08/29 11:46:50;;;;;;;24.15;5.82;;;20.30;99.90;;;;;;4799458;29;20501;-69
2022/08/29 11:49:23;;;;;;;28.08;5.97;;;21.30;99.90;;;;;;4822373;29;20047;-68
2022/08/29 11:51:54;;;;;;;31.42;6.43;;;21.10;99.90;;;;;;4805393;29;20042;-69
2022/08/29 11:54:22;;;;;;;32.85;6.32;;;20.40;96.50;;;;;;4804906;29;20046;-68
2022/08/29 11:56:49;;;;;;;28.65;6.60;;;20.00;99.90;;;;;;4806060;29;20110;-72
2022/08/29 11:59:49;;;;;;;26.98;5.90;;;20.90;99.90;;;;;;4790409;29;20549;-68
2022/08/29 12:02:27;;;;;;;21.20;6.38;;;20.30;99.90;;;;;;4806553;29;20054;-69
2022/08/29 12:05:28;;;;;;;21.92;5.13;;;21.20;99.90;;;;;;4806766;29;20050;-69
2022/08/29 12:08:02;;;;;;;25.52;5.78;;;21.00;99.90;;;;;;4791640;29;20472;-70
2022/08/29 12:10:30;;;;;;;26.77;5.85;;;20.50;97.40;;;;;;4836871;29;20058;-69
2022/08/29 12:12:59;;;;;;;26.50;5.88;;;19.90;99.90;;;;;;4836896;29;20104;-69
2022/08/29 12:15:31;;;;;;;27.55;6.05;;;20.00;99.90;;;;;;4806388;29;20483;-69
2022/08/29 12:18:06;;;;;;;29.02;6.60;;;20.80;99.90;;;;;;4806548;29;20527;-69
2022/08/29 12:20:39;;;;;;;28.45;5.95;;;19.70;99.90;;;;;;4806762;29;20042;-70
2022/08/29 12:23:13;;;;;;;29.45;6.68;;;19.70;99.90;;;;;;4836609;29;20050;-69
2022/08/29 12:25:45;;;;;;;26.98;6.55;;;21.20;99.90;;;;;;4806435;29;20050;-69
2022/08/29 12:28:19;;;;;;;29.30;7.18;;;19.80;99.90;;;;;;4791448;29;20137;-69
2022/08/29 12:30:50;;;;;;;28.10;6.53;;;21.20;99.70;;;;;;4805524;29;20055;-70
2022/08/29 12:33:52;;;;;;;30.25;7.28;;;21.20;99.90;;;;;;4806008;29;20043;-69
2022/08/29 12:36:45;;;;;;;26.55;6.40;;;20.30;99.90;;;;;;4808279;29;20050;-69
2022/08/29 12:39:32;;;;;;;19.15;5.72;;;20.60;99.90;;;;;;4809333;29;20055;-69
2022/08/29 12:42:33;;;;;;;27.65;6.10;;;20.50;99.90;;;;;;4806352;29;20380;-70
2022/08/29 12:44:58;;;;;;;24.45;5.97;;;19.60;99.90;;;;;;4791051;30;20043;-69
2022/08/29 12:47:34;;;;;;;23.90;6.43;;;21.30;99.90;;;;;;4801819;29;20581;-70
2022/08/29 12:50:05;;;;;;;22.17;5.90;;;20.30;97.10;;;;;;4806152;29;20534;-70
2022/08/29 12:52:36;;;;;;;21.42;5.80;;;20.90;99.90;;;;;;4827598;29;20054;-73
2022/08/29 12:55:20;;;;;;;25.52;6.00;;;20.90;99.90;;;;;;4805355;29;20047;-73
2022/08/29 12:57:46;;;;;;;33.33;6.25;;;20.30;99.90;;;;;;4790604;29;20425;-73
2022/08/29 13:00:18;;;;;;;35.70;6.85;;;20.30;99.90;;;;;;4816376;29;20130;-73
2022/08/29 13:02:54;;;;;;;;;;;20.20;97.60;;;;;;4828297;29;20112;-73
2022/08/29 13:05:22;;;;;;;24.77;6.20;;;19.50;99.90;;;;;;4790430;29;19921;-73
2022/08/29 13:07:59;;;;;;;37.55;6.20;;;20.10;96.50;;;;;;4805029;29;20497;-73
2022/08/29 13:10:26;;;;;;;32.22;6.20;;;20.60;97.90;;;;;;4806305;29;20039;-73
2022/08/29 13:12:55;;;;;;;29.90;5.45;;;19.90;98.50;;;;;;4790288;29;20043;-73
2022/08/29 13:15:21;;;;;;;30.77;6.97;;;;;;;;;;4805222;29;20051;-73
2022/08/29 13:17:49;;;;;;;26.75;6.53;;;20.80;99.90;;;;;;4799590;29;20065;-73
2022/08/29 13:20:37;;;;;;;30.58;5.97;;;19.50;99.90;;;;;;4827435;29;20091;-73
2022/08/29 13:23:11;;;;;;;40.88;7.35;;;20.50;99.90;;;;;;4805026;29;20106;-73
2022/08/29 13:25:58;;;;;;;33.70;6.57;;;19.50;99.90;;;;;;4805551;29;20046;-73
2022/08/29 13:28:29;;;;;;;25.08;6.68;;;19.20;99.90;;;;;;4809605;29;20047;-72
2022/08/29 13:31:13;;;;;;;21.60;6.65;;;18.70;99.90;;;;;;4805400;29;20054;-72
2022/08/29 13:33:44;;;;;;;22.48;6.28;;;19.90;98.00;;;;;;4832528;29;20105;-72
2022/08/29 13:36:31;;;;;;;31.08;6.10;;;20.70;99.50;;;;;;4805459;29;20127;-72
2022/08/29 13:39:33;;;;;;;24.73;6.38;;;20.70;99.90;;;;;;4804809;29;20055;-72
2022/08/29 13:42:14;;;;;;;21.02;7.07;;;20.40;99.90;;;;;;4804747;29;20092;-72
2022/08/29 13:44:50;;;;;;;22.55;5.85;;;18.90;99.90;;;;;;4805414;29;20043;-72